Jeffrey's Bay, South Africa
Current Conditions -  °F | °C
As of 12:00 PM on Wednesday 22 Oct 2014 (Local Time) from FAPE Reporting Station
Clear Clear  
Wind Chill: 70°   Ceiling: Unl
Heat Index: 70°   Visibility: 6mi
Dew Point: 59°   Wind: 24mph
Humidity: 68%   Direction: 80°E
Pressure: 30.03"   Gusts: NA
Location:  34.05°S, 24.92°E
Report Text: FAPE 221000Z 08021KT CAVOK 21/15 Q1017 NOSIG
Loading
Personal Weather Stations






























Interactive Weather Map
Tropical Storm Tracking
New forecast layout! Learn more

10-Day Weather Forecast

Advertisements
Track Severe Weather on mobile